createdAt,value
2019-03-06T00:00:30.206Z,6.20
2019-03-06T00:03:01.910Z,6.20
2019-03-06T00:05:33.249Z,6.20
2019-03-06T00:08:04.485Z,6.20
2019-03-06T00:10:36.450Z,6.10
2019-03-06T00:13:08.000Z,6.10
2019-03-06T00:15:38.769Z,6.10
2019-03-06T00:18:10.736Z,6.10
2019-03-06T00:20:42.367Z,6.00
2019-03-06T00:23:13.470Z,6.00
2019-03-06T00:25:44.819Z,6.00
2019-03-06T00:28:16.322Z,6.00
2019-03-06T00:30:47.876Z,6.00
2019-03-06T00:33:18.834Z,5.90
2019-03-06T00:35:51.265Z,5.90
2019-03-06T00:38:22.713Z,5.90
2019-03-06T00:41:18.481Z,5.90
2019-03-06T00:43:49.985Z,5.90
2019-03-06T00:46:21.629Z,5.80
2019-03-06T00:48:52.749Z,5.80
2019-03-06T00:51:24.339Z,5.70
2019-03-06T00:53:55.607Z,5.70
2019-03-06T00:56:26.641Z,5.70
2019-03-06T00:58:57.431Z,5.60
2019-03-06T01:01:28.484Z,5.60
2019-03-06T01:03:59.478Z,5.60
2019-03-06T01:06:30.284Z,5.60
2019-03-06T01:09:01.536Z,5.60
2019-03-06T01:11:32.584Z,5.60
2019-03-06T01:14:04.402Z,5.60
2019-03-06T01:16:36.270Z,5.60
2019-03-06T01:19:07.807Z,5.60
2019-03-06T01:21:38.775Z,5.60
2019-03-06T01:24:10.123Z,5.60
2019-03-06T01:26:40.890Z,5.60
2019-03-06T01:29:12.413Z,5.60
2019-03-06T01:31:43.457Z,5.60
2019-03-06T01:34:27.085Z,5.60
2019-03-06T01:37:09.641Z,5.60
2019-03-06T01:40:17.917Z,5.50
2019-03-06T01:42:53.729Z,5.50
2019-03-06T01:45:25.057Z,5.50
2019-03-06T01:47:56.632Z,5.40
2019-03-06T01:50:27.901Z,5.40
2019-03-06T01:52:59.550Z,5.40
2019-03-06T01:55:31.035Z,5.30
2019-03-06T01:58:02.607Z,5.30
2019-03-06T02:00:34.337Z,5.30
2019-03-06T02:03:05.872Z,5.30
2019-03-06T02:05:37.103Z,5.30
2019-03-06T02:08:08.956Z,5.20
2019-03-06T02:10:41.635Z,5.20
2019-03-06T02:13:12.965Z,5.20
2019-03-06T02:15:44.820Z,5.10
2019-03-06T02:18:16.348Z,5.10
2019-03-06T02:20:47.700Z,5.20
2019-03-06T02:23:18.957Z,5.10
2019-03-06T02:25:49.869Z,5.10
2019-03-06T02:28:21.411Z,5.00
2019-03-06T02:30:52.708Z,5.00
2019-03-06T02:33:24.978Z,4.90
2019-03-06T02:35:55.935Z,4.80
2019-03-06T02:38:27.343Z,4.70
2019-03-06T02:40:59.258Z,4.70
2019-03-06T02:43:31.075Z,4.90
2019-03-06T02:46:02.066Z,4.70
2019-03-06T02:48:33.345Z,4.60
2019-03-06T02:51:04.260Z,4.60
2019-03-06T02:53:35.529Z,4.60
2019-03-06T02:56:06.339Z,4.80
2019-03-06T02:58:44.787Z,4.70
2019-03-06T03:01:36.803Z,4.60
2019-03-06T03:04:27.895Z,4.60
2019-03-06T03:07:02.380Z,4.50
2019-03-06T03:09:33.953Z,4.50
2019-03-06T03:12:05.196Z,4.40
2019-03-06T03:14:36.874Z,4.30
2019-03-06T03:17:08.545Z,4.30
2019-03-06T03:19:39.794Z,4.20
2019-03-06T03:22:11.069Z,4.20
2019-03-06T03:24:42.728Z,4.20
2019-03-06T03:27:14.312Z,4.20
2019-03-06T03:29:45.271Z,4.10
2019-03-06T03:32:16.818Z,4.10
2019-03-06T03:34:48.351Z,4.10
2019-03-06T03:37:20.185Z,4.00
2019-03-06T03:39:51.426Z,4.00
2019-03-06T03:42:23.001Z,4.00
2019-03-06T03:44:53.970Z,4.00
2019-03-06T03:47:24.985Z,3.90
2019-03-06T03:49:56.227Z,3.90
2019-03-06T03:52:28.157Z,3.80
2019-03-06T03:54:59.751Z,3.80
2019-03-06T03:57:31.639Z,3.80
2019-03-06T04:00:02.855Z,3.80
2019-03-06T04:02:34.092Z,3.70
2019-03-06T04:05:05.452Z,3.70
2019-03-06T04:07:37.286Z,3.60
2019-03-06T04:10:09.471Z,3.60
2019-03-06T04:12:41.371Z,3.60
2019-03-06T04:15:13.546Z,3.70
2019-03-06T04:17:45.109Z,3.70
2019-03-06T04:20:16.694Z,3.70
2019-03-06T04:22:48.320Z,3.70
2019-03-06T04:25:19.611Z,3.70
2019-03-06T04:27:51.930Z,3.70
2019-03-06T04:30:23.839Z,3.70
2019-03-06T04:32:55.373Z,3.70
2019-03-06T04:35:27.569Z,3.70
2019-03-06T04:37:58.803Z,3.70
2019-03-06T04:40:30.079Z,3.60
2019-03-06T04:43:01.827Z,3.60
2019-03-06T04:45:33.079Z,3.60
2019-03-06T04:48:04.515Z,3.60
2019-03-06T04:50:35.514Z,3.70
2019-03-06T04:53:06.498Z,3.60
2019-03-06T04:55:37.423Z,3.60
2019-03-06T04:58:08.883Z,3.60
2019-03-06T05:04:22.636Z,3.70
2019-03-06T05:13:21.168Z,3.60
2019-03-06T05:30:11.486Z,3.40
2019-03-06T05:32:43.158Z,3.30
2019-03-06T05:39:21.263Z,3.30
2019-03-06T05:41:52.668Z,3.30
2019-03-06T05:44:56.830Z,3.30
2019-03-06T06:00:25.472Z,3.10
2019-03-06T06:03:48.627Z,3.30
2019-03-06T06:06:19.700Z,3.20
2019-03-06T06:08:50.654Z,3.10
2019-03-06T06:11:21.958Z,3.10
2019-03-06T06:13:53.202Z,3.10
2019-03-06T06:16:24.457Z,3.20
2019-03-06T06:18:56.290Z,3.10
2019-03-06T06:21:45.986Z,3.10
2019-03-06T06:24:20.612Z,3.10
2019-03-06T06:26:52.395Z,3.10
2019-03-06T06:29:23.652Z,3.10
2019-03-06T06:31:55.206Z,3.10
2019-03-06T06:34:26.724Z,3.10
2019-03-06T06:36:57.815Z,3.20
2019-03-06T06:39:29.411Z,3.30
2019-03-06T06:42:00.931Z,3.40
2019-03-06T06:44:31.908Z,3.50
2019-03-06T06:47:03.191Z,3.60
2019-03-06T06:49:34.712Z,3.60
2019-03-06T06:53:03.149Z,3.60
2019-03-06T06:56:27.618Z,3.70
2019-03-06T06:59:17.263Z,3.70
2019-03-06T07:02:20.613Z,3.80
2019-03-06T07:05:29.849Z,3.90
2019-03-06T07:08:29.363Z,4.00
2019-03-06T07:11:22.990Z,4.10
2019-03-06T07:14:01.364Z,4.20
2019-03-06T07:17:01.262Z,4.20
2019-03-06T07:19:43.380Z,4.30
2019-03-06T07:22:32.342Z,4.40
2019-03-06T07:25:21.274Z,4.50
2019-03-06T07:28:14.171Z,4.60
2019-03-06T07:30:58.778Z,4.80
2019-03-06T07:33:44.908Z,5.00
2019-03-06T07:36:34.054Z,5.20
2019-03-06T07:39:21.866Z,5.40
2019-03-06T07:42:15.331Z,5.70
2019-03-06T07:46:16.711Z,5.80
2019-03-06T07:49:12.016Z,5.80
2019-03-06T07:52:04.640Z,6.00
2019-03-06T07:55:03.514Z,6.00
2019-03-06T07:57:42.364Z,6.00
2019-03-06T08:00:22.476Z,6.00
2019-03-06T08:03:11.465Z,5.90
2019-03-06T08:05:42.706Z,6.00
2019-03-06T08:08:14.527Z,6.30
2019-03-06T08:10:46.427Z,6.30
2019-03-06T08:13:36.599Z,6.70
2019-03-06T08:16:22.268Z,6.80
2019-03-06T08:19:06.788Z,7.10
2019-03-06T08:21:46.266Z,7.40
2019-03-06T08:24:45.348Z,7.40
2019-03-06T08:27:16.310Z,7.50
2019-03-06T08:29:47.572Z,7.50
2019-03-06T08:32:36.942Z,7.50
2019-03-06T08:35:10.341Z,7.50
2019-03-06T08:37:41.702Z,7.60
2019-03-06T08:40:13.424Z,7.60
2019-03-06T08:42:45.417Z,7.60
2019-03-06T08:45:19.158Z,7.80
2019-03-06T08:48:15.340Z,8.00
2019-03-06T08:51:02.878Z,8.20
2019-03-06T08:53:52.497Z,8.60
2019-03-06T08:56:45.415Z,9.00
2019-03-06T08:59:25.384Z,9.10
2019-03-06T09:02:15.717Z,9.00
2019-03-06T09:04:54.320Z,9.00
2019-03-06T09:07:52.073Z,9.20
2019-03-06T09:11:03.078Z,9.00
2019-03-06T09:13:45.572Z,9.20
2019-03-06T09:16:29.040Z,9.10
2019-03-06T09:19:19.153Z,9.50
2019-03-06T09:22:02.490Z,9.60
2019-03-06T09:24:58.593Z,9.80
2019-03-06T09:27:54.961Z,9.80
2019-03-06T09:30:33.877Z,9.80
2019-03-06T09:33:19.865Z,9.80
2019-03-06T09:35:58.586Z,9.90
2019-03-06T09:38:48.873Z,10.10
2019-03-06T09:41:30.217Z,10.40
2019-03-06T09:44:35.413Z,10.70
2019-03-06T09:47:24.283Z,10.60
2019-03-06T09:50:14.597Z,10.80
2019-03-06T09:53:03.551Z,11.20
2019-03-06T09:55:53.050Z,11.50
2019-03-06T09:58:43.947Z,11.60
2019-03-06T10:01:34.407Z,11.60
2019-03-06T10:04:34.202Z,11.60
2019-03-06T10:07:23.386Z,11.70
2019-03-06T10:10:16.406Z,11.60
2019-03-06T10:12:59.843Z,11.50
2019-03-06T10:16:04.558Z,11.50
2019-03-06T10:18:52.838Z,11.30
2019-03-06T10:21:25.732Z,11.40
2019-03-06T10:23:57.451Z,11.40
2019-03-06T10:26:29.421Z,11.40
2019-03-06T10:29:00.978Z,11.40
2019-03-06T10:31:32.823Z,11.50
2019-03-06T10:34:04.704Z,11.50
2019-03-06T10:36:35.700Z,11.70
2019-03-06T10:39:09.191Z,11.70
2019-03-06T10:41:40.542Z,11.90
2019-03-06T10:44:12.591Z,12.00
2019-03-06T10:46:43.882Z,12.20
2019-03-06T10:49:15.766Z,12.50
2019-03-06T10:51:47.409Z,12.60
2019-03-06T10:54:18.700Z,12.70
2019-03-06T10:56:49.966Z,12.90
2019-03-06T10:59:20.703Z,13.10
2019-03-06T11:01:51.745Z,13.20
2019-03-06T11:04:40.345Z,13.30
2019-03-06T11:07:12.239Z,13.40
2019-03-06T11:09:43.709Z,13.30
2019-03-06T11:12:15.260Z,13.20
2019-03-06T11:14:47.324Z,13.50
2019-03-06T11:17:19.295Z,13.80
2019-03-06T11:19:50.644Z,14.40
2019-03-06T11:22:21.354Z,14.90
2019-03-06T11:24:53.022Z,15.10
2019-03-06T11:27:24.173Z,15.50
2019-03-06T11:29:55.497Z,15.60
2019-03-06T11:32:27.086Z,15.90
2019-03-06T11:34:58.455Z,16.10
2019-03-06T11:37:31.980Z,16.50
2019-03-06T11:40:03.500Z,17.90
2019-03-06T11:42:34.511Z,18.40
2019-03-06T11:45:06.473Z,18.40
2019-03-06T11:47:37.725Z,18.50
2019-03-06T11:50:10.555Z,18.70
2019-03-06T11:52:41.960Z,19.00
2019-03-06T11:55:13.550Z,19.00
2019-03-06T11:57:46.382Z,19.10
2019-03-06T12:00:32.652Z,19.40
2019-03-06T12:03:04.325Z,19.20
2019-03-06T12:05:36.426Z,18.90
2019-03-06T12:08:15.797Z,18.90
2019-03-06T12:10:47.443Z,18.60
2019-03-06T12:13:22.254Z,18.30
2019-03-06T12:15:54.252Z,18.00
2019-03-06T12:18:27.123Z,18.10
2019-03-06T12:20:58.434Z,18.00
2019-03-06T12:23:30.280Z,17.90
2019-03-06T12:26:01.545Z,17.60
2019-03-06T12:28:32.607Z,17.60
2019-03-06T12:31:05.021Z,17.20
2019-03-06T12:33:36.598Z,16.80
2019-03-06T12:36:07.547Z,16.60
2019-03-06T12:38:40.192Z,16.40
2019-03-06T12:41:12.778Z,16.20
2019-03-06T12:43:44.755Z,16.00
2019-03-06T12:46:24.334Z,15.90
2019-03-06T12:49:05.850Z,15.90
2019-03-06T12:51:38.954Z,16.00
2019-03-06T12:54:10.930Z,16.40
2019-03-06T12:56:42.148Z,16.80
2019-03-06T12:59:13.487Z,17.00
2019-03-06T13:01:44.881Z,16.90
2019-03-06T13:04:16.776Z,17.00
2019-03-06T13:06:48.369Z,17.00
2019-03-06T13:09:21.068Z,17.20
2019-03-06T13:11:52.348Z,17.10
2019-03-06T13:14:23.603Z,17.60
2019-03-06T13:16:54.776Z,17.80
2019-03-06T13:19:26.455Z,18.10
2019-03-06T13:21:58.351Z,18.30
2019-03-06T13:24:29.965Z,18.50
2019-03-06T13:27:01.258Z,19.10
2019-03-06T13:29:32.837Z,19.40
2019-03-06T13:32:11.421Z,19.90
2019-03-06T13:34:50.329Z,20.10
2019-03-06T13:37:16.807Z,20.20
2019-03-06T13:39:47.755Z,20.30
2019-03-06T13:42:19.145Z,20.90
2019-03-06T13:44:50.257Z,21.20
2019-03-06T13:47:21.539Z,21.70
2019-03-06T13:49:52.818Z,22.20
2019-03-06T13:52:24.584Z,22.00
2019-03-06T13:54:56.221Z,21.80
2019-03-06T13:57:27.448Z,21.70
2019-03-06T13:59:59.016Z,21.80
2019-03-06T14:02:30.312Z,21.70
2019-03-06T14:05:02.293Z,21.70
2019-03-06T14:07:33.702Z,21.50
2019-03-06T14:10:05.485Z,21.10
2019-03-06T14:12:36.786Z,21.40
2019-03-06T14:15:08.870Z,21.10
2019-03-06T14:17:40.522Z,20.90
2019-03-06T14:20:12.233Z,21.10
2019-03-06T14:22:43.512Z,20.90
2019-03-06T14:25:16.356Z,20.90
2019-03-06T14:27:48.158Z,21.10
2019-03-06T14:30:19.471Z,20.60
2019-03-06T14:32:51.050Z,20.20
2019-03-06T14:35:22.417Z,20.20
2019-03-06T14:37:53.572Z,19.90
2019-03-06T14:40:31.521Z,19.90
2019-03-06T14:43:03.750Z,19.60
2019-03-06T14:45:35.292Z,19.40
2019-03-06T14:48:07.103Z,19.30
2019-03-06T14:50:38.420Z,19.20
2019-03-06T14:53:10.243Z,19.00
2019-03-06T14:55:42.060Z,19.00
2019-03-06T14:58:13.740Z,19.00
2019-03-06T15:00:45.742Z,19.10
2019-03-06T15:03:18.066Z,19.10
2019-03-06T15:05:49.409Z,19.30
2019-03-06T15:08:20.980Z,19.30
2019-03-06T15:10:52.854Z,19.10
2019-03-06T15:13:24.471Z,18.90
2019-03-06T15:15:56.202Z,18.80
2019-03-06T15:18:28.005Z,18.90
2019-03-06T15:20:59.737Z,18.90
2019-03-06T15:23:30.832Z,18.80
2019-03-06T15:26:02.145Z,18.60
2019-03-06T15:28:34.267Z,18.60
2019-03-06T15:31:05.399Z,18.40
2019-03-06T15:33:37.392Z,18.30
2019-03-06T15:36:08.977Z,18.20
2019-03-06T15:38:40.103Z,18.10
2019-03-06T15:41:11.854Z,18.10
2019-03-06T15:43:43.232Z,18.00
2019-03-06T15:46:15.003Z,18.10
2019-03-06T15:48:46.674Z,17.90
2019-03-06T15:51:18.288Z,17.80
2019-03-06T15:53:49.634Z,17.80
2019-03-06T15:56:22.205Z,17.70
2019-03-06T15:59:00.690Z,17.80
2019-03-06T16:01:33.346Z,17.70
2019-03-06T16:04:06.020Z,17.80
2019-03-06T16:06:37.147Z,17.60
2019-03-06T16:09:10.363Z,17.60
2019-03-06T16:11:41.558Z,17.60
2019-03-06T16:14:12.848Z,17.40
2019-03-06T16:16:44.343Z,17.30
2019-03-06T16:19:15.259Z,17.20
2019-03-06T16:21:47.336Z,17.10
2019-03-06T16:24:19.478Z,16.90
2019-03-06T16:26:50.828Z,16.80
2019-03-06T16:29:23.723Z,16.60
2019-03-06T16:31:56.023Z,16.50
2019-03-06T16:34:28.086Z,16.40
2019-03-06T16:37:01.288Z,16.50
2019-03-06T16:39:33.405Z,16.40
2019-03-06T16:42:05.334Z,16.40
2019-03-06T16:44:36.794Z,16.30
2019-03-06T16:47:09.116Z,16.10
2019-03-06T16:49:41.335Z,16.20
2019-03-06T16:52:13.204Z,16.20
2019-03-06T16:54:44.826Z,16.00
2019-03-06T16:57:16.486Z,15.90
2019-03-06T16:59:48.090Z,15.80
2019-03-06T17:02:19.391Z,15.60
2019-03-06T17:04:50.941Z,15.60
2019-03-06T17:07:22.736Z,15.60
2019-03-06T17:09:54.123Z,15.40
2019-03-06T17:12:25.725Z,15.30
2019-03-06T17:14:56.898Z,15.00
2019-03-06T17:17:28.304Z,14.90
2019-03-06T17:19:59.581Z,14.70
2019-03-06T17:22:31.465Z,14.50
2019-03-06T17:25:03.506Z,14.20
2019-03-06T17:27:34.870Z,14.10
2019-03-06T17:30:09.769Z,14.10
2019-03-06T17:32:53.564Z,14.10
2019-03-06T17:35:25.101Z,14.10
2019-03-06T17:37:56.769Z,13.80
2019-03-06T17:40:29.410Z,13.90
2019-03-06T17:43:01.077Z,13.50
2019-03-06T17:45:32.989Z,13.30
2019-03-06T17:48:05.112Z,13.30
2019-03-06T17:50:36.575Z,13.20
2019-03-06T17:53:07.774Z,13.10
2019-03-06T17:55:39.728Z,13.10
2019-03-06T17:58:11.478Z,13.10
2019-03-06T18:00:46.126Z,13.20
2019-03-06T18:03:23.478Z,13.20
2019-03-06T18:05:55.318Z,13.20
2019-03-06T18:08:27.106Z,13.20
2019-03-06T18:10:58.828Z,13.30
2019-03-06T18:13:30.690Z,13.30
2019-03-06T18:16:02.417Z,13.30
2019-03-06T18:18:34.379Z,13.30
2019-03-06T18:21:05.944Z,13.40
2019-03-06T18:23:37.864Z,13.40
2019-03-06T18:26:09.965Z,13.30
2019-03-06T18:28:41.722Z,13.30
2019-03-06T18:31:12.444Z,13.30
2019-03-06T18:33:44.027Z,13.10
2019-03-06T18:36:16.096Z,13.10
2019-03-06T18:38:47.738Z,13.10
2019-03-06T18:41:18.394Z,13.10
2019-03-06T18:43:49.503Z,13.20
2019-03-06T18:46:21.202Z,13.20
2019-03-06T18:48:52.545Z,13.10
2019-03-06T18:51:23.937Z,13.10
2019-03-06T18:53:55.111Z,13.20
2019-03-06T18:56:27.041Z,13.20
2019-03-06T18:58:59.021Z,13.20
2019-03-06T19:01:30.703Z,13.20
2019-03-06T19:04:02.206Z,13.20
2019-03-06T19:06:33.805Z,13.20
2019-03-06T19:09:07.124Z,13.10
2019-03-06T19:11:39.791Z,13.10
2019-03-06T19:14:12.307Z,13.20
2019-03-06T19:16:44.153Z,13.10
2019-03-06T19:19:15.750Z,13.10
2019-03-06T19:21:47.048Z,13.20
2019-03-06T19:24:18.659Z,13.30
2019-03-06T19:26:50.744Z,13.40
2019-03-06T19:29:22.423Z,13.30
2019-03-06T19:31:53.979Z,13.30
2019-03-06T19:34:25.555Z,13.10
2019-03-06T19:36:56.806Z,13.30
2019-03-06T19:39:28.868Z,13.30
2019-03-06T19:42:00.390Z,13.30
2019-03-06T19:44:31.905Z,13.30
2019-03-06T19:47:03.482Z,13.30
2019-03-06T19:49:35.595Z,13.40
2019-03-06T19:52:07.121Z,13.30
2019-03-06T19:54:38.740Z,13.50
2019-03-06T19:57:10.189Z,13.50
2019-03-06T19:59:42.577Z,13.40
2019-03-06T20:02:14.146Z,13.40
2019-03-06T20:04:45.760Z,13.40
2019-03-06T20:07:17.407Z,13.30
2019-03-06T20:09:49.464Z,13.40
2019-03-06T20:12:21.530Z,13.40
2019-03-06T20:14:52.868Z,13.30
2019-03-06T20:17:24.817Z,13.20
2019-03-06T20:19:56.617Z,13.10
2019-03-06T20:22:28.606Z,13.00
2019-03-06T20:25:01.373Z,13.00
2019-03-06T20:27:32.971Z,12.90
2019-03-06T20:30:05.940Z,12.90
2019-03-06T20:32:36.963Z,12.90
2019-03-06T20:35:09.872Z,12.90
2019-03-06T20:37:40.926Z,12.90
2019-03-06T20:40:12.825Z,12.90
2019-03-06T20:42:44.445Z,12.70
2019-03-06T20:45:15.608Z,12.70
2019-03-06T20:47:47.272Z,12.70
2019-03-06T20:50:19.181Z,12.70
2019-03-06T20:52:51.128Z,12.60
2019-03-06T20:55:22.576Z,12.60
2019-03-06T20:57:54.818Z,12.60
2019-03-06T21:00:26.595Z,12.60
2019-03-06T21:02:58.697Z,12.50
2019-03-06T21:05:30.677Z,12.50
2019-03-06T21:08:01.778Z,12.50
2019-03-06T21:10:33.982Z,12.50
2019-03-06T21:13:06.451Z,12.50
2019-03-06T21:15:37.901Z,12.50
2019-03-06T21:18:11.093Z,12.50
2019-03-06T21:20:42.780Z,12.50
2019-03-06T21:23:14.996Z,12.50
2019-03-06T21:25:46.182Z,12.40
2019-03-06T21:28:17.076Z,12.40
2019-03-06T21:30:48.898Z,12.50
2019-03-06T21:33:21.991Z,12.40
2019-03-06T21:35:53.141Z,12.50
2019-03-06T21:38:24.621Z,12.60
2019-03-06T21:40:56.226Z,12.60
2019-03-06T21:43:27.907Z,12.50
2019-03-06T21:46:01.339Z,12.50
2019-03-06T21:48:32.468Z,12.50
2019-03-06T21:51:05.351Z,12.50
2019-03-06T21:53:38.972Z,12.70
2019-03-06T21:56:23.598Z,12.80
2019-03-06T21:59:56.757Z,12.60
2019-03-06T22:02:28.568Z,12.50
2019-03-06T22:05:00.581Z,12.30
2019-03-06T22:07:32.198Z,12.20
2019-03-06T22:10:03.533Z,12.20
2019-03-06T22:12:35.262Z,12.10
2019-03-06T22:15:07.327Z,12.00
2019-03-06T22:17:39.002Z,11.90
2019-03-06T22:20:10.850Z,11.90
2019-03-06T22:22:41.719Z,11.80
2019-03-06T22:25:13.833Z,11.70
2019-03-06T22:27:45.237Z,11.70
2019-03-06T22:30:19.087Z,11.60
2019-03-06T22:32:50.870Z,11.60
2019-03-06T22:35:22.457Z,11.70
2019-03-06T22:37:53.483Z,11.60
2019-03-06T22:40:25.221Z,11.60
2019-03-06T22:42:57.287Z,11.50
2019-03-06T22:45:29.464Z,11.50
2019-03-06T22:48:00.855Z,11.40
2019-03-06T22:50:32.148Z,11.30
2019-03-06T22:53:03.317Z,11.40
2019-03-06T22:55:34.345Z,11.40
2019-03-06T22:58:05.293Z,11.30
2019-03-06T23:01:09.521Z,11.20
2019-03-06T23:03:41.469Z,11.20
2019-03-06T23:06:12.503Z,11.20
2019-03-06T23:08:43.858Z,11.10
2019-03-06T23:11:14.499Z,11.10
2019-03-06T23:13:45.644Z,11.00
2019-03-06T23:16:17.228Z,10.90
2019-03-06T23:18:48.169Z,10.80
2019-03-06T23:21:19.437Z,10.70
2019-03-06T23:23:50.455Z,10.60
2019-03-06T23:26:22.384Z,10.60
2019-03-06T23:28:54.332Z,10.50
2019-03-06T23:31:25.906Z,10.40
2019-03-06T23:33:57.543Z,10.40
2019-03-06T23:36:29.122Z,10.30
2019-03-06T23:39:00.371Z,10.20
2019-03-06T23:41:31.662Z,10.10
2019-03-06T23:44:03.770Z,10.10
2019-03-06T23:46:35.629Z,10.00
2019-03-06T23:49:07.159Z,9.80
2019-03-06T23:51:56.187Z,9.70
2019-03-06T23:54:27.772Z,9.70
2019-03-06T23:56:59.114Z,9.70
2019-03-06T23:59:30.367Z,9.70
